Time;durP1;ratioP1;P1;durP2;ratioP2;P2;SDS_P1;SDS_P2;PMS_P1;PMS_P2;Temp;Humidity;BMP_temperature;BMP_pressure;BME280_temperature;BME280_humidity;BME280_pressure;Samples;Min_cycle;Max_cycle;Signal;HPM_P1;HPM_P2
2024/01/06 00:01:29;;;;;;;31.60;13.90;;;;;;;;;;5019787;28;20249;-76
2024/01/06 00:03:55;;;;;;;28.67;13.27;;;;;;;;;;5010875;28;20198;-78
2024/01/06 00:06:20;;;;;;;29.87;13.37;;;;;;;;;;5031920;28;20186;-76
2024/01/06 00:08:45;;;;;;;25.93;12.10;;;;;;;;;;5005683;28;20293;-76
2024/01/06 00:11:11;;;;;;;26.93;12.97;;;;;;;;;;5014051;28;20194;-77
2024/01/06 00:13:36;;;;;;;26.63;12.37;;;;;;;;;;5014986;28;20202;-76
2024/01/06 00:16:02;;;;;;;29.07;13.80;;;;;;;;;;5014492;28;20178;-76
2024/01/06 00:18:27;;;;;;;27.97;14.00;;;;;;;;;;5007945;28;20211;-76
2024/01/06 00:20:53;;;;;;;30.10;13.90;;;;;;;;;;5019492;28;20239;-77
2024/01/06 00:23:18;;;;;;;32.97;14.93;;;;;;;;;;5011738;28;20230;-76
2024/01/06 00:25:44;;;;;;;28.50;14.37;;;;;;;;;;5009056;28;20264;-77
2024/01/06 00:28:09;;;;;;;26.73;12.67;;;;;;;;;;4991581;28;20207;-76
2024/01/06 00:30:35;;;;;;;27.83;13.27;;;;;;;;;;5006466;28;20558;-76
2024/01/06 00:33:00;;;;;;;27.90;13.77;;;;;;;;;;5007701;28;20225;-77
2024/01/06 00:35:26;;;;;;;23.93;11.80;;;;;;;;;;5002081;28;20254;-77
2024/01/06 00:37:52;;;;;;;28.50;13.53;;;;;;;;;;5010581;28;20202;-77
2024/01/06 00:40:19;;;;;;;27.30;13.27;;;;;;;;;;5011581;28;20264;-77
2024/01/06 00:42:45;;;;;;;25.93;12.17;;;;;;;;;;5006064;28;20199;-77
2024/01/06 00:45:10;;;;;;;24.27;11.93;;;;;;;;;;5008631;28;20237;-77
2024/01/06 00:47:35;;;;;;;27.27;12.17;;;;;;;;;;4998798;28;20565;-77
2024/01/06 00:50:01;;;;;;;27.40;12.53;;;;;;;;;;4989404;28;20246;-77
2024/01/06 00:52:26;;;;;;;27.40;12.03;;;;;;;;;;5010995;28;20608;-77
2024/01/06 00:54:52;;;;;;;26.03;12.03;;;;;;;;;;5006499;28;20749;-77
2024/01/06 00:57:17;;;;;;;26.33;12.27;;;;;;;;;;5002246;28;20247;-77
2024/01/06 00:59:43;;;;;;;27.40;13.57;;;;;;;;;;5008407;28;20238;-77
2024/01/06 01:02:08;;;;;;;29.17;12.27;;;;;;;;;;4989394;28;20204;-77
2024/01/06 01:04:33;;;;;;;30.37;13.73;;;;;;;;;;5008232;28;20194;-77
2024/01/06 01:06:59;;;;;;;32.43;14.00;;;;;;;;;;5008754;28;20195;-77
2024/01/06 01:09:24;;;;;;;29.77;13.67;;;;;;;;;;5009733;28;20202;-77
2024/01/06 01:11:50;;;;;;;29.57;13.60;;;;;;;;;;5009103;28;20191;-77
2024/01/06 01:14:18;;;;;;;28.97;13.33;;;;;;;;;;5008891;28;20201;-77
2024/01/06 01:16:43;;;;;;;23.43;11.73;;;;;;;;;;5009211;28;20195;-77
2024/01/06 01:19:09;;;;;;;23.63;11.87;;;;;;;;;;5006664;28;20221;-77
2024/01/06 01:21:34;;;;;;;24.73;11.23;;;;;;;;;;5023173;28;20324;-77
2024/01/06 01:24:00;;;;;;;30.67;11.97;;;;;;;;;;5011575;28;20243;-76
2024/01/06 01:26:25;;;;;;;31.97;12.63;;;;;;;;;;5010504;28;20248;-77
2024/01/06 01:28:51;;;;;;;32.93;14.13;;;;;;;;;;5027240;28;20186;-76
2024/01/06 01:31:16;;;;;;;34.13;14.20;;;;;;;;;;5030580;28;20179;-76
2024/01/06 01:33:42;;;;;;;42.33;15.53;;;;;;;;;;4992174;28;20217;-77
2024/01/06 01:36:07;;;;;;;35.87;16.37;;;;;;;;;;5008414;28;20191;-77
2024/01/06 01:38:33;;;;;;;37.63;16.20;;;;;;;;;;5012550;28;20225;-77
2024/01/06 01:40:59;;;;;;;35.33;15.60;;;;;;;;;;4994756;28;20182;-76
2024/01/06 01:43:24;;;;;;;36.17;16.07;;;;;;;;;;5022137;28;20191;-77
2024/01/06 01:45:53;;;;;;;38.93;16.20;;;;;;;;;;4995050;28;20277;-76
2024/01/06 01:48:20;;;;;;;39.43;17.27;;;;;;;;;;5009347;28;20273;-77
2024/01/06 01:50:46;;;;;;;35.30;16.67;;;;;;;;;;5004871;28;20305;-77
2024/01/06 01:53:12;;;;;;;36.87;16.13;;;;;;;;;;5014686;28;20214;-77
2024/01/06 01:55:38;;;;;;;39.07;17.00;;;;;;;;;;5021621;28;20210;-77
2024/01/06 01:58:05;;;;;;;36.93;17.67;;;;;;;;;;5011129;28;20193;-76
2024/01/06 02:00:31;;;;;;;38.93;17.37;;;;;;;;;;5010787;28;20190;-76
2024/01/06 02:02:58;;;;;;;35.40;15.93;;;;;;;;;;5028064;28;20269;-76
2024/01/06 02:05:24;;;;;;;39.17;16.97;;;;;;;;;;5008127;28;20556;-76
2024/01/06 02:07:50;;;;;;;38.17;17.23;;;;;;;;;;5024160;28;20197;-76
2024/01/06 02:10:17;;;;;;;37.47;16.20;;;;;;;;;;5026910;28;20197;-76
2024/01/06 02:12:42;;;;;;;36.83;15.97;;;;;;;;;;5011412;28;20190;-76
2024/01/06 02:15:08;;;;;;;34.73;16.00;;;;;;;;;;5006530;28;20224;-76
2024/01/06 02:17:33;;;;;;;32.57;15.97;;;;;;;;;;5010761;28;20200;-75
2024/01/06 02:19:59;;;;;;;35.57;16.37;;;;;;;;;;5010921;28;20217;-76
2024/01/06 02:22:24;;;;;;;31.40;14.77;;;;;;;;;;5006565;28;20265;-77
2024/01/06 02:24:50;;;;;;;37.40;16.27;;;;;;;;;;5006862;28;20183;-77
2024/01/06 02:27:15;;;;;;;33.57;15.10;;;;;;;;;;5009764;28;20198;-77
2024/01/06 02:29:41;;;;;;;31.67;15.53;;;;;;;;;;5006474;28;20267;-77
2024/01/06 02:32:06;;;;;;;32.13;15.73;;;;;;;;;;4989365;28;20211;-77
2024/01/06 02:34:32;;;;;;;36.40;16.23;;;;;;;;;;5008374;28;20269;-77
2024/01/06 02:36:58;;;;;;;31.20;15.87;;;;;;;;;;5021147;28;20186;-76
2024/01/06 02:39:23;;;;;;;35.23;15.30;;;;;;;;;;5006572;28;20673;-77
2024/01/06 02:41:49;;;;;;;35.93;14.93;;;;;;;;;;5004591;28;20209;-76
2024/01/06 02:44:15;;;;;;;35.27;15.40;;;;;;;;;;4988771;28;20670;-76
2024/01/06 02:46:40;;;;;;;36.77;15.20;;;;;;;;;;4998538;28;20275;-76
2024/01/06 02:49:07;;;;;;;37.77;16.73;;;;;;;;;;4990348;28;20584;-76
2024/01/06 02:51:32;;;;;;;36.87;15.70;;;;;;;;;;4989019;28;20723;-76
2024/01/06 02:53:58;;;;;;;40.77;16.50;;;;;;;;;;4997714;28;20345;-76
2024/01/06 02:56:23;;;;;;;36.23;15.73;;;;;;;;;;5002382;28;20560;-76
2024/01/06 02:58:48;;;;;;;37.37;15.83;;;;;;;;;;5007704;28;20704;-76
2024/01/06 03:01:14;;;;;;;33.23;15.83;;;;;;;;;;5005108;28;20202;-76
2024/01/06 03:03:39;;;;;;;35.23;16.47;;;;;;;;;;5006716;28;20536;-76
2024/01/06 03:06:05;;;;;;;35.70;16.00;;;;;;;;;;5006054;28;20193;-76
2024/01/06 03:08:31;;;;;;;37.23;15.87;;;;;;;;;;5007374;28;20187;-76
2024/01/06 03:10:56;;;;;;;38.57;17.80;;;;;;;;;;5006960;28;20182;-76
2024/01/06 03:13:22;;;;;;;34.23;16.40;;;;;;;;;;5005922;28;20653;-76
2024/01/06 03:15:47;;;;;;;41.13;17.77;;;;;;;;;;4997070;28;20663;-76
2024/01/06 03:18:12;;;;;;;40.33;18.43;;;;;;;;;;5001261;28;20211;-76
2024/01/06 03:20:38;;;;;;;40.77;19.17;;;;;;;;;;4994415;28;20312;-76
2024/01/06 03:23:03;;;;;;;38.90;18.17;;;;;;;;;;5005892;28;20233;-78
2024/01/06 03:25:29;;;;;;;36.57;17.67;;;;;;;;;;5006250;28;20187;-77
2024/01/06 03:27:54;;;;;;;37.80;17.57;;;;;;;;;;5001487;28;20198;-77
2024/01/06 03:30:19;;;;;;;36.33;16.50;;;;;;;;;;5005543;28;20222;-77
2024/01/06 03:32:45;;;;;;;36.27;17.63;;;;;;;;;;5006021;28;20233;-77
2024/01/06 03:35:11;;;;;;;37.97;17.97;;;;;;;;;;5006825;28;20266;-76
2024/01/06 03:37:36;;;;;;;31.40;16.87;;;;;;;;;;4990874;28;20279;-76
2024/01/06 03:40:02;;;;;;;36.70;17.30;;;;;;;;;;4990009;28;20282;-76
2024/01/06 03:42:28;;;;;;;31.53;16.30;;;;;;;;;;5007867;28;20186;-76
2024/01/06 03:44:53;;;;;;;33.93;17.33;;;;;;;;;;5004711;28;20214;-77
2024/01/06 03:47:19;;;;;;;34.70;16.30;;;;;;;;;;5005788;28;20298;-76
2024/01/06 03:49:44;;;;;;;30.67;16.40;;;;;;;;;;5025825;28;20245;-77
2024/01/06 03:52:10;;;;;;;30.67;15.07;;;;;;;;;;5009263;28;20225;-77
2024/01/06 03:54:35;;;;;;;33.87;16.03;;;;;;;;;;4990337;28;20215;-76
2024/01/06 03:57:00;;;;;;;31.43;15.87;;;;;;;;;;4990546;28;20194;-76
2024/01/06 03:59:26;;;;;;;31.27;15.63;;;;;;;;;;5006549;28;20198;-76
2024/01/06 04:01:51;;;;;;;34.33;16.23;;;;;;;;;;5007475;28;20257;-76
2024/01/06 04:04:17;;;;;;;31.77;16.23;;;;;;;;;;5007510;28;20183;-76
2024/01/06 04:06:42;;;;;;;36.07;15.73;;;;;;;;;;4996136;28;20194;-76
2024/01/06 04:09:09;;;;;;;37.30;17.40;;;;;;;;;;5006578;28;20191;-76
2024/01/06 04:11:34;;;;;;;37.93;16.67;;;;;;;;;;5003127;28;20195;-76
2024/01/06 04:14:00;;;;;;;39.10;17.33;;;;;;;;;;4999633;28;20697;-76
2024/01/06 04:16:27;;;;;;;37.93;17.67;;;;;;;;;;5006736;28;20273;-75
2024/01/06 04:18:52;;;;;;;39.57;19.63;;;;;;;;;;5006205;28;20199;-76
2024/01/06 04:21:18;;;;;;;40.43;18.40;;;;;;;;;;5016043;28;20237;-76
2024/01/06 04:23:43;;;;;;;39.33;19.07;;;;;;;;;;5010093;28;20183;-75
2024/01/06 04:26:09;;;;;;;39.40;18.90;;;;;;;;;;5003178;28;20187;-76
2024/01/06 04:28:34;;;;;;;36.17;18.00;;;;;;;;;;5031859;28;20198;-75
2024/01/06 04:31:00;;;;;;;38.97;17.97;;;;;;;;;;5010287;28;20182;-77
2024/01/06 04:33:25;;;;;;;40.50;17.83;;;;;;;;;;5003173;28;20630;-77
2024/01/06 04:35:51;;;;;;;41.90;19.20;;;;;;;;;;5013556;28;20595;-76
2024/01/06 04:38:16;;;;;;;38.73;18.37;;;;;;;;;;5009298;28;20670;-77
2024/01/06 04:40:43;;;;;;;43.33;19.23;;;;;;;;;;5024125;28;20209;-77
2024/01/06 04:43:08;;;;;;;41.87;19.40;;;;;;;;;;5024880;28;20195;-77
2024/01/06 04:45:34;;;;;;;45.57;19.80;;;;;;;;;;5006177;28;20195;-77
2024/01/06 04:47:59;;;;;;;43.10;19.33;;;;;;;;;;5026170;28;20198;-77
2024/01/06 04:50:25;;;;;;;42.73;19.90;;;;;;;;;;5023784;28;20225;-77
2024/01/06 04:52:51;;;;;;;44.20;20.63;;;;;;;;;;5012305;28;20217;-77
2024/01/06 04:55:16;;;;;;;43.93;19.43;;;;;;;;;;5014370;28;20272;-77
2024/01/06 04:57:42;;;;;;;37.73;18.77;;;;;;;;;;4988314;28;20194;-77
2024/01/06 05:00:08;;;;;;;41.87;20.30;;;;;;;;;;4997305;28;20189;-77
2024/01/06 05:02:34;;;;;;;47.63;19.53;;;;;;;;;;5013590;28;20202;-77
2024/01/06 05:04:59;;;;;;;38.63;18.93;;;;;;;;;;5009625;28;20183;-77
2024/01/06 05:07:24;;;;;;;44.47;20.27;;;;;;;;;;5007490;28;20260;-77
2024/01/06 05:09:50;;;;;;;40.33;18.80;;;;;;;;;;5014371;28;20534;-77
2024/01/06 05:12:15;;;;;;;41.87;19.03;;;;;;;;;;5011732;28;20218;-77
2024/01/06 05:14:41;;;;;;;39.43;17.20;;;;;;;;;;5011915;28;20716;-77
2024/01/06 05:17:06;;;;;;;40.97;18.07;;;;;;;;;;5031666;28;20206;-77
2024/01/06 05:19:32;;;;;;;39.20;18.93;;;;;;;;;;5027316;28;20209;-77
2024/01/06 05:21:58;;;;;;;40.13;18.47;;;;;;;;;;5015391;28;20597;-77
2024/01/06 05:24:23;;;;;;;43.83;19.87;;;;;;;;;;5012937;28;20198;-77
2024/01/06 05:26:49;;;;;;;39.53;17.90;;;;;;;;;;5006337;28;20482;-76
2024/01/06 05:29:14;;;;;;;39.13;18.90;;;;;;;;;;5026297;28;20190;-76
2024/01/06 05:31:40;;;;;;;41.33;18.30;;;;;;;;;;5012345;28;20532;-76
2024/01/06 05:34:05;;;;;;;40.40;18.87;;;;;;;;;;5030625;28;20244;-77
2024/01/06 05:36:31;;;;;;;40.63;19.67;;;;;;;;;;5018785;28;20591;-77
2024/01/06 05:38:56;;;;;;;44.13;20.43;;;;;;;;;;5007798;28;20691;-77
2024/01/06 05:41:22;;;;;;;46.70;19.93;;;;;;;;;;5030463;28;20632;-76
2024/01/06 05:43:47;;;;;;;45.70;20.40;;;;;;;;;;4993179;28;20185;-77
2024/01/06 05:46:21;;;;;;;46.77;20.73;;;;;;;;;;5011483;28;20205;-76
2024/01/06 05:48:46;;;;;;;45.57;20.90;;;;;;;;;;5012918;28;20251;-77
2024/01/06 05:51:11;;;;;;;47.73;20.67;;;;;;;;;;5026912;28;20190;-77
2024/01/06 05:53:37;;;;;;;46.23;20.87;;;;;;;;;;5010422;28;20281;-77
2024/01/06 05:56:03;;;;;;;44.97;20.57;;;;;;;;;;5011321;28;20645;-76
2024/01/06 05:58:28;;;;;;;45.93;20.90;;;;;;;;;;4993960;28;20580;-77
2024/01/06 06:00:53;;;;;;;49.23;21.67;;;;;;;;;;5031970;28;20254;-76
2024/01/06 06:03:19;;;;;;;55.37;21.33;;;;;;;;;;5012398;28;20239;-76
2024/01/06 06:05:44;;;;;;;51.97;22.10;;;;;;;;;;5016571;28;20190;-77
2024/01/06 06:08:10;;;;;;;52.40;22.23;;;;;;;;;;4994565;28;20186;-76
2024/01/06 06:10:51;;;;;;;57.40;22.63;;;;;;;;;;4995816;28;20222;-77
2024/01/06 06:13:17;;;;;;;49.43;21.20;;;;;;;;;;5020826;28;20197;-77
2024/01/06 06:15:42;;;;;;;59.77;22.23;;;;;;;;;;5007075;28;20193;-77
2024/01/06 06:18:08;;;;;;;55.97;23.40;;;;;;;;;;4986393;28;20215;-77
2024/01/06 06:20:33;;;;;;;54.13;22.90;;;;;;;;;;5006406;28;20254;-77
2024/01/06 06:22:59;;;;;;;69.10;23.60;;;;;;;;;;5007991;28;20182;-77
2024/01/06 06:25:24;;;;;;;57.80;22.63;;;;;;;;;;5009016;28;20186;-77
2024/01/06 06:27:49;;;;;;;58.00;23.07;;;;;;;;;;5004734;28;20189;-76
2024/01/06 06:30:15;;;;;;;52.93;22.57;;;;;;;;;;5008648;28;20261;-76
2024/01/06 06:32:40;;;;;;;54.87;21.47;;;;;;;;;;5004323;28;20216;-77
2024/01/06 06:35:07;;;;;;;59.43;23.17;;;;;;;;;;4988032;28;20269;-76
2024/01/06 06:37:32;;;;;;;61.73;24.43;;;;;;;;;;5010411;28;20190;-77
2024/01/06 06:39:57;;;;;;;54.43;22.83;;;;;;;;;;5028409;28;20240;-77
2024/01/06 06:42:23;;;;;;;54.20;22.63;;;;;;;;;;5028427;28;20194;-77
2024/01/06 06:44:48;;;;;;;55.70;21.00;;;;;;;;;;5010964;28;20178;-76
2024/01/06 06:47:14;;;;;;;57.90;21.70;;;;;;;;;;5006373;28;20732;-77
2024/01/06 06:49:39;;;;;;;52.17;20.10;;;;;;;;;;5005798;28;20186;-77
2024/01/06 06:52:06;;;;;;;51.80;17.80;;;;;;;;;;5023294;28;20724;-77
2024/01/06 06:54:32;;;;;;;42.67;17.10;;;;;;;;;;5003900;28;20234;-76
2024/01/06 06:56:57;;;;;;;49.33;18.17;;;;;;;;;;5023092;28;20197;-76
2024/01/06 06:59:23;;;;;;;42.33;16.73;;;;;;;;;;5019848;28;20365;-77
2024/01/06 07:01:49;;;;;;;37.80;16.20;;;;;;;;;;5011436;28;20185;-76
2024/01/06 07:04:14;;;;;;;40.53;16.07;;;;;;;;;;5019788;28;20220;-77
2024/01/06 07:06:39;;;;;;;35.80;15.77;;;;;;;;;;5023090;28;20518;-77
2024/01/06 07:09:05;;;;;;;42.40;15.73;;;;;;;;;;4998621;28;20200;-77
2024/01/06 07:11:30;;;;;;;35.90;14.97;;;;;;;;;;5007318;28;20193;-77
2024/01/06 07:13:56;;;;;;;36.83;16.07;;;;;;;;;;5007429;28;20249;-77
2024/01/06 07:16:21;;;;;;;35.00;14.00;;;;;;;;;;5005410;28;20205;-77
2024/01/06 07:18:47;;;;;;;36.90;15.47;;;;;;;;;;5026076;28;20214;-77
2024/01/06 07:21:12;;;;;;;43.20;15.37;;;;;;;;;;5000778;28;20222;-76
2024/01/06 07:23:38;;;;;;;45.80;17.00;;;;;;;;;;5027741;28;20547;-77
2024/01/06 07:26:03;;;;;;;38.10;15.80;;;;;;;;;;5008627;28;20572;-76
2024/01/06 07:28:29;;;;;;;40.13;16.20;;;;;;;;;;5028012;28;20603;-77
2024/01/06 07:30:54;;;;;;;41.57;17.23;;;;;;;;;;5024767;28;20218;-77
2024/01/06 07:33:20;;;;;;;40.70;16.83;;;;;;;;;;4991331;28;20269;-77
2024/01/06 07:35:46;;;;;;;42.47;16.83;;;;;;;;;;4994729;28;20196;-77
2024/01/06 07:38:12;;;;;;;39.07;16.33;;;;;;;;;;5025798;28;20255;-77
2024/01/06 07:40:38;;;;;;;33.47;12.90;;;;;;;;;;5023634;28;20198;-78
2024/01/06 07:43:04;;;;;;;35.70;14.97;;;;;;;;;;5031807;28;20194;-77
2024/01/06 07:45:32;;;;;;;34.43;14.43;;;;;;;;;;5023332;28;20183;-77
2024/01/06 07:48:01;;;;;;;36.17;14.90;;;;;;;;;;4988267;28;20231;-77
2024/01/06 07:50:27;;;;;;;34.13;13.77;;;;;;;;;;5011407;28;20247;-77
2024/01/06 07:52:54;;;;;;;39.80;15.17;;;;;;;;;;5004725;28;20549;-77
2024/01/06 07:55:19;;;;;;;34.50;14.47;;;;;;;;;;5005921;28;20211;-77
2024/01/06 07:57:44;;;;;;;42.27;16.27;;;;;;;;;;4991820;28;20201;-77
2024/01/06 08:00:14;;;;;;;34.13;14.70;;;;;;;;;;5023529;28;20194;-77
2024/01/06 08:02:40;;;;;;;33.73;14.17;;;;;;;;;;4994928;28;20276;-77
2024/01/06 08:05:06;;;;;;;41.07;14.97;;;;;;;;;;5028729;28;20213;-77
2024/01/06 08:07:32;;;;;;;35.10;15.37;;;;;;;;;;5011451;28;20236;-77
2024/01/06 08:09:58;;;;;;;36.97;14.33;;;;;;;;;;5009127;28;20214;-77
2024/01/06 08:12:23;;;;;;;41.70;15.47;;;;;;;;;;5029651;28;20198;-77
2024/01/06 08:14:49;;;;;;;35.33;15.50;;;;;;;;;;5030530;28;20202;-77
2024/01/06 08:17:15;;;;;;;33.30;14.27;;;;;;;;;;5029087;28;20206;-77
2024/01/06 08:19:41;;;;;;;34.83;15.10;;;;;;;;;;5010282;28;20592;-77
2024/01/06 08:22:07;;;;;;;38.20;16.33;;;;;;;;;;5028169;28;20236;-77
2024/01/06 08:24:33;;;;;;;35.40;15.67;;;;;;;;;;5026868;28;20541;-77
2024/01/06 08:26:59;;;;;;;33.40;15.77;;;;;;;;;;5029030;28;20182;-77
2024/01/06 08:29:25;;;;;;;37.57;16.20;;;;;;;;;;5027278;28;20182;-77
2024/01/06 08:31:52;;;;;;;41.27;16.93;;;;;;;;;;5023172;28;20190;-77
2024/01/06 08:34:18;;;;;;;32.73;15.43;;;;;;;;;;5019263;28;20566;-77
2024/01/06 08:36:43;;;;;;;34.23;13.83;;;;;;;;;;4994134;28;20638;-77
2024/01/06 08:39:09;;;;;;;35.80;14.20;;;;;;;;;;5009174;28;20198;-77
2024/01/06 08:41:34;;;;;;;32.53;13.13;;;;;;;;;;5027344;28;20274;-76
2024/01/06 08:44:00;;;;;;;31.33;13.77;;;;;;;;;;5029561;28;20190;-76
2024/01/06 08:46:25;;;;;;;33.93;14.33;;;;;;;;;;5008968;28;20201;-76
2024/01/06 08:48:51;;;;;;;31.63;13.10;;;;;;;;;;5017321;28;20189;-76
2024/01/06 08:51:16;;;;;;;33.73;14.77;;;;;;;;;;5004532;28;20191;-76
2024/01/06 08:53:42;;;;;;;32.97;14.87;;;;;;;;;;5022092;28;20670;-76
2024/01/06 08:56:07;;;;;;;33.30;16.07;;;;;;;;;;5025924;28;20612;-77
2024/01/06 08:58:33;;;;;;;33.80;15.30;;;;;;;;;;5021281;28;20201;-76
2024/01/06 09:00:59;;;;;;;39.77;14.63;;;;;;;;;;5027300;28;20213;-76
2024/01/06 09:03:25;;;;;;;33.00;14.20;;;;;;;;;;5026291;28;20300;-76
2024/01/06 09:05:52;;;;;;;40.47;14.37;;;;;;;;;;4994145;28;20174;-76
2024/01/06 09:08:18;;;;;;;39.50;14.97;;;;;;;;;;5025120;28;20543;-76
2024/01/06 09:10:43;;;;;;;43.40;16.43;;;;;;;;;;4993957;28;20190;-76
2024/01/06 09:13:09;;;;;;;36.80;15.53;;;;;;;;;;5025910;28;20503;-76
2024/01/06 09:15:34;;;;;;;40.63;17.03;;;;;;;;;;5010698;28;20654;-76
2024/01/06 09:18:00;;;;;;;43.00;18.00;;;;;;;;;;5011934;28;20296;-76
2024/01/06 09:20:27;;;;;;;39.33;17.07;;;;;;;;;;4995273;28;20534;-76
2024/01/06 09:22:52;;;;;;;44.17;18.20;;;;;;;;;;5026929;28;20185;-76
2024/01/06 09:25:18;;;;;;;44.67;17.10;;;;;;;;;;4995712;28;20210;-76
2024/01/06 09:27:43;;;;;;;41.80;17.37;;;;;;;;;;5012277;28;20186;-77
2024/01/06 09:30:09;;;;;;;43.40;18.07;;;;;;;;;;5007641;28;20227;-76
2024/01/06 09:32:34;;;;;;;37.87;18.33;;;;;;;;;;5007092;28;20190;-76
2024/01/06 09:35:00;;;;;;;42.60;19.50;;;;;;;;;;5024604;28;20684;-77
2024/01/06 09:37:25;;;;;;;33.57;14.27;;;;;;;;;;5012169;28;20646;-78
2024/01/06 09:39:51;;;;;;;38.70;17.17;;;;;;;;;;5012177;28;20603;-77
2024/01/06 09:42:17;;;;;;;39.23;17.90;;;;;;;;;;5008834;28;20392;-77
2024/01/06 09:44:42;;;;;;;33.47;15.60;;;;;;;;;;5027742;28;20286;-77
2024/01/06 09:47:10;;;;;;;30.23;14.50;;;;;;;;;;5024755;28;20678;-75
2024/01/06 09:49:39;;;;;;;37.97;16.07;;;;;;;;;;5001549;28;20205;-76
2024/01/06 09:52:15;;;;;;;35.90;16.63;;;;;;;;;;5025487;28;20191;-76
2024/01/06 09:54:51;;;;;;;36.67;16.43;;;;;;;;;;5007806;28;20685;-77
2024/01/06 09:57:16;;;;;;;33.53;16.23;;;;;;;;;;4985042;28;20225;-76
2024/01/06 09:59:44;;;;;;;32.83;16.57;;;;;;;;;;5006470;28;20218;-77
2024/01/06 10:02:13;;;;;;;33.07;16.47;;;;;;;;;;5006325;28;20244;-76
2024/01/06 10:04:39;;;;;;;31.77;15.00;;;;;;;;;;4987467;28;20214;-76
2024/01/06 10:07:05;;;;;;;30.50;15.50;;;;;;;;;;5023505;28;20205;-77
2024/01/06 10:09:30;;;;;;;32.93;15.70;;;;;;;;;;5006855;28;20193;-76
2024/01/06 10:11:59;;;;;;;28.73;15.57;;;;;;;;;;5005086;28;20768;-76
2024/01/06 10:14:25;;;;;;;29.10;15.73;;;;;;;;;;5020814;28;20244;-77
2024/01/06 10:16:54;;;;;;;31.53;16.57;;;;;;;;;;5005397;28;20283;-77
2024/01/06 10:19:20;;;;;;;32.53;16.87;;;;;;;;;;5004114;28;20245;-76
2024/01/06 10:21:45;;;;;;;33.13;16.13;;;;;;;;;;5021889;28;20711;-76
2024/01/06 10:24:11;;;;;;;33.33;17.97;;;;;;;;;;5004851;28;20220;-77
2024/01/06 10:26:36;;;;;;;29.57;16.23;;;;;;;;;;5007371;28;20197;-76
2024/01/06 10:29:02;;;;;;;34.13;17.53;;;;;;;;;;5024974;28;20191;-76
2024/01/06 10:31:29;;;;;;;31.87;17.10;;;;;;;;;;5022037;28;20196;-77
2024/01/06 10:33:55;;;;;;;29.63;16.63;;;;;;;;;;5022778;28;20186;-76
2024/01/06 10:36:23;;;;;;;31.10;16.97;;;;;;;;;;5004562;28;20530;-77
2024/01/06 10:38:49;;;;;;;31.87;17.93;;;;;;;;;;5005309;28;20210;-76
2024/01/06 10:41:16;;;;;;;34.10;16.73;;;;;;;;;;5004686;28;20656;-76
2024/01/06 10:43:43;;;;;;;29.90;16.67;;;;;;;;;;5002068;28;20216;-76
2024/01/06 10:46:14;;;;;;;30.93;16.67;;;;;;;;;;5003949;28;20630;-76
2024/01/06 10:48:42;;;;;;;31.97;17.60;;;;;;;;;;5005429;28;20194;-76
2024/01/06 10:51:09;;;;;;;30.40;17.03;;;;;;;;;;5020479;28;20251;-76
2024/01/06 10:53:39;;;;;;;33.53;17.67;;;;;;;;;;5001577;28;20397;-76
2024/01/06 10:56:07;;;;;;;33.30;18.07;;;;;;;;;;4986595;28;20573;-76
2024/01/06 10:58:36;;;;;;;28.70;16.17;;;;;;;;;;5002595;28;20282;-76
2024/01/06 11:01:02;;;;;;;29.37;17.27;;;;;;;;;;4986317;28;20236;-76
2024/01/06 11:03:29;;;;;;;29.67;17.20;;;;;;;;;;4989151;28;20511;-76
2024/01/06 11:05:55;;;;;;;28.13;16.50;;;;;;;;;;5019742;28;20186;-76
2024/01/06 11:08:21;;;;;;;30.70;17.47;;;;;;;;;;5003542;28;20190;-76
2024/01/06 11:10:47;;;;;;;30.47;17.23;;;;;;;;;;5001005;28;20186;-76
2024/01/06 11:13:16;;;;;;;30.53;17.23;;;;;;;;;;5020754;28;20198;-76
2024/01/06 11:15:46;;;;;;;28.07;16.30;;;;;;;;;;5015914;28;20190;-76
2024/01/06 11:18:34;;;;;;;27.40;16.20;;;;;;;;;;5002741;28;20213;-75
2024/01/06 11:21:25;;;;;;;29.10;16.40;;;;;;;;;;5022910;28;20225;-76
2024/01/06 11:24:15;;;;;;;29.03;17.10;;;;;;;;;;5018804;28;20236;-75
2024/01/06 11:26:44;;;;;;;30.33;17.27;;;;;;;;;;4985866;28;20186;-76
2024/01/06 11:29:10;;;;;;;29.37;16.93;;;;;;;;;;5019539;28;20748;-76
2024/01/06 11:31:37;;;;;;;30.03;16.03;;;;;;;;;;5019547;28;20182;-76
2024/01/06 11:34:36;;;;;;;28.63;16.30;;;;;;;;;;5004612;28;20222;-76
2024/01/06 11:37:02;;;;;;;29.97;16.93;;;;;;;;;;5017735;28;20205;-75
2024/01/06 11:39:41;;;;;;;29.80;16.80;;;;;;;;;;5023854;28;20206;-76
2024/01/06 11:42:10;;;;;;;40.53;20.03;;;;;;;;;;5009212;28;20196;-76
2024/01/06 11:44:42;;;;;;;29.90;18.27;;;;;;;;;;5024776;28;20219;-76
2024/01/06 11:47:11;;;;;;;28.20;16.73;;;;;;;;;;5025339;28;20350;-76
2024/01/06 11:49:37;;;;;;;27.57;16.47;;;;;;;;;;5006958;28;20776;-76
2024/01/06 11:52:03;;;;;;;26.17;16.53;;;;;;;;;;5008824;28;20269;-76
2024/01/06 11:54:28;;;;;;;27.10;16.00;;;;;;;;;;5016612;28;20564;-76
2024/01/06 11:56:55;;;;;;;27.13;16.43;;;;;;;;;;5011263;28;20665;-76
2024/01/06 11:59:21;;;;;;;28.07;16.37;;;;;;;;;;5025809;28;20190;-75
2024/01/06 12:01:46;;;;;;;27.97;17.37;;;;;;;;;;5015742;28;20691;-75
2024/01/06 12:04:15;;;;;;;27.40;17.27;;;;;;;;;;5012127;28;20542;-76
2024/01/06 12:06:41;;;;;;;30.47;17.37;;;;;;;;;;5009224;28;20230;-76
2024/01/06 12:09:09;;;;;;;29.77;18.17;;;;;;;;;;5013276;28;20354;-76
2024/01/06 12:11:34;;;;;;;27.63;16.50;;;;;;;;;;5027728;28;20606;-76
2024/01/06 12:13:59;;;;;;;26.83;16.87;;;;;;;;;;5029436;28;20190;-76
2024/01/06 12:16:27;;;;;;;32.37;17.47;;;;;;;;;;5010357;28;20210;-75
2024/01/06 12:18:57;;;;;;;27.40;17.20;;;;;;;;;;5029291;28;20233;-76
2024/01/06 12:21:23;;;;;;;30.30;17.50;;;;;;;;;;5024241;28;20356;-76
2024/01/06 12:23:49;;;;;;;30.60;18.20;;;;;;;;;;5031080;28;20692;-76
2024/01/06 12:26:16;;;;;;;30.30;17.33;;;;;;;;;;5009449;28;20182;-76
2024/01/06 12:28:45;;;;;;;29.90;16.63;;;;;;;;;;5011344;28;20196;-77
2024/01/06 12:31:12;;;;;;;28.47;16.57;;;;;;;;;;5026350;28;20596;-76
2024/01/06 12:33:41;;;;;;;30.40;17.90;;;;;;;;;;5023006;28;20182;-76
2024/01/06 12:36:08;;;;;;;30.43;18.53;;;;;;;;;;5011382;28;20255;-76
2024/01/06 12:38:34;;;;;;;30.10;17.47;;;;;;;;;;5029823;28;20221;-77
2024/01/06 12:41:00;;;;;;;32.97;17.73;;;;;;;;;;5010515;28;20630;-76
2024/01/06 12:43:25;;;;;;;30.00;18.27;;;;;;;;;;4995582;28;20210;-76
2024/01/06 12:45:53;;;;;;;30.87;18.43;;;;;;;;;;5024990;28;20198;-76
2024/01/06 12:48:19;;;;;;;33.23;19.53;;;;;;;;;;5025091;28;20194;-77
2024/01/06 12:50:44;;;;;;;33.77;19.70;;;;;;;;;;5013786;28;20186;-76
2024/01/06 12:53:12;;;;;;;31.03;18.20;;;;;;;;;;5008304;28;20189;-76
2024/01/06 12:55:37;;;;;;;34.80;19.97;;;;;;;;;;5024647;28;20186;-76
2024/01/06 12:58:03;;;;;;;35.47;18.60;;;;;;;;;;5007811;28;20186;-76
2024/01/06 13:00:29;;;;;;;33.57;18.73;;;;;;;;;;5030010;28;20182;-75
2024/01/06 13:02:55;;;;;;;34.17;19.77;;;;;;;;;;5006963;28;20482;-76
2024/01/06 13:05:20;;;;;;;31.90;18.77;;;;;;;;;;5031020;28;20686;-76
2024/01/06 13:07:46;;;;;;;34.00;18.90;;;;;;;;;;5027405;28;20713;-76
2024/01/06 13:10:11;;;;;;;35.53;19.13;;;;;;;;;;5009181;28;20182;-76
2024/01/06 13:12:37;;;;;;;34.80;19.17;;;;;;;;;;5024098;28;20523;-76
2024/01/06 13:15:02;;;;;;;32.80;18.77;;;;;;;;;;5010137;28;20178;-76
2024/01/06 13:17:28;;;;;;;36.20;19.73;;;;;;;;;;5025653;28;20217;-76
2024/01/06 13:19:53;;;;;;;36.17;19.40;;;;;;;;;;5011574;28;20228;-75
2024/01/06 13:22:21;;;;;;;33.97;18.70;;;;;;;;;;5010830;28;20221;-75
2024/01/06 13:24:47;;;;;;;36.93;19.20;;;;;;;;;;5008137;28;20234;-75
2024/01/06 13:27:12;;;;;;;36.47;19.20;;;;;;;;;;4995682;28;20695;-76
2024/01/06 13:29:38;;;;;;;36.27;19.87;;;;;;;;;;5004916;28;20736;-76
2024/01/06 13:32:05;;;;;;;35.63;19.23;;;;;;;;;;4994698;28;20581;-77
2024/01/06 13:34:31;;;;;;;39.60;19.47;;;;;;;;;;5010704;28;20193;-76
2024/01/06 13:36:57;;;;;;;31.63;17.90;;;;;;;;;;5030744;28;20194;-76
2024/01/06 13:39:23;;;;;;;38.40;20.07;;;;;;;;;;5011944;28;20613;-76
2024/01/06 13:41:49;;;;;;;38.13;21.13;;;;;;;;;;5025895;28;20190;-75
2024/01/06 13:44:15;;;;;;;29.98;16.00;;;;;;;;;;4315325;28;10021640;-76
2024/01/06 13:46:44;;;;;;;36.30;19.30;;;;;;;;;;5031606;28;20533;-76
2024/01/06 13:49:13;;;;;;;37.53;20.27;;;;;;;;;;5009959;28;20193;-76
2024/01/06 13:51:39;;;;;;;38.17;20.43;;;;;;;;;;5024929;28;20194;-76
2024/01/06 13:54:05;;;;;;;35.50;19.23;;;;;;;;;;5020657;28;20547;-75
2024/01/06 13:56:30;;;;;;;33.63;19.97;;;;;;;;;;5013844;28;20197;-76
2024/01/06 13:58:57;;;;;;;33.40;19.67;;;;;;;;;;5009456;28;20256;-76
2024/01/06 14:01:23;;;;;;;35.93;19.90;;;;;;;;;;5004508;28;20187;-75
2024/01/06 14:03:49;;;;;;;37.03;20.33;;;;;;;;;;5004674;28;21947;-75
2024/01/06 14:06:15;;;;;;;35.77;19.53;;;;;;;;;;4989459;28;20182;-76
2024/01/06 14:08:41;;;;;;;35.70;19.57;;;;;;;;;;5018272;28;20613;-76
2024/01/06 14:11:07;;;;;;;35.57;19.33;;;;;;;;;;5008815;28;20218;-76